Adrian, IL

11:11 AM CDT on October 24, 2014 (GMT -0500)
Chem Gro Inc. | Change Station
CLOSE
Current Station
Personal Weather Station
Location: Adrian, IL
Elevation: 705 ft
Nearby Weather Stations
Active Advisory: Dense Fog Advisory

Elev 705 ft 40.52 °N, 91.17 °W | Updated 5 seconds ago

Fog
Fog
55.6 °F
Feels Like 55.6 °F
N
11.6
Wind Variable Wind from South
Gusts 11.6 mph

Today
High -- | Low -- °F
--% Chance of Precip.
Yesterday
High -- | Low -- °F
Precip. -- in
7:25 AM 6:11 PM
New Moon, 1% visible
Pressure 30.08 in
Visibility 0.2 miles
Clouds Overcast 100 ft
Dew Point 54 °F
Humidity 93%
Rainfall 0.00 in
Snow Depth Not available.
UV 1 out of 12
Pollen 1.50 out of 12
Air Quality Not available.
Flu Activity No Activity
METAR KFSW 241555Z AUTO 18006KT 1/4SM FG OVC001 13/13 A3008 RMK AO2

More Conditions Fewer Conditions

Pressure 30.08 in
Visibility 0.2 miles
Clouds Overcast 100 ft
Dew Point 54 °F
Humidity 93%
Rainfall 0.00 in
Snow Depth Not available.
UV 1 out of 12
Pollen 1.50 out of 12
Air Quality Not available.
Flu Activity No Activity
METAR KFSW 241555Z AUTO 18006KT 1/4SM FG OVC001 13/13 A3008 RMK AO2

More Conditions Fewer Conditions

10-Day Weather Forecast

Almanac

Astronomy

Oct. 24, 2014 Rise Set
Actual Time 7:25 AM CDT 6:11 PM CDT
Civil Twilight 6:57 AM CDT 6:39 PM CDT
Nautical Twilight 6:25 AM CDT 7:11 PM CDT
Astronomical Twilight 5:54 AM CDT 7:42 PM CDT
Moon 8:05 AM CDT 6:51 PM CDT
Length of Visible Light 11h 41m
Length of Day
10h 45m
Tomorrow will be 2m 29s shorter.
New Moon, 1% of the Moon is Illuminated
Today
New Moon
Oct 30
First Quarter
Nov 6
Full
Nov 14
Last Quarter
Nov 22
New

Today's Extremes

State Highs State Lows

Community

WunderPhotos

Upload Photos

1,764,600 photos uploaded!

WunderBlogs® & News

Nearby

Snow Depth

Station Depth Elevation
No new snow has been reported.

Earthquake Activity

City Distance Mag. Time & Date
No recent earthquake activity has been reported nearby.
Minimum magnitude displayed is 2.5.

Coastal Water Temperatures

Place Temperature
No Stations Reporting

Nearby Weather Stations